Time;durP1;ratioP1;P1;durP2;ratioP2;P2;SDS_P1;SDS_P2;PMS_P1;PMS_P2;Temp;Humidity;BMP_temperature;BMP_pressure;BME280_temperature;BME280_humidity;BME280_pressure;Samples;Min_cycle;Max_cycle;Signal;HPM_P1;HPM_P2
2021/10/22 00:01:59;;;;;;;4.07;1.08;;;;;;;;;;5041325;28;20464;-86
2021/10/22 00:04:25;;;;;;;0.00;0.00;;;;;;;;;;5039608;28;20065;-87
2021/10/22 00:06:52;;;;;;;0.40;0.40;;;;;;;;;;5038196;28;20025;-86
2021/10/22 00:09:18;;;;;;;0.63;0.35;;;;;;;;;;5035834;28;20021;-87
2021/10/22 00:11:45;;;;;;;0.10;0.10;;;;;;;;;;5035877;28;20118;-87
2021/10/22 00:14:11;;;;;;;;;;;;;;;;;;5019722;28;20501;-86
2021/10/22 00:16:37;;;;;;;0.15;0.15;;;;;;;;;;5031744;28;20021;-86
2021/10/22 00:19:04;;;;;;;0.25;0.25;;;;;;;;;;5037171;28;20028;-86
2021/10/22 00:21:30;;;;;;;0.75;0.40;;;;;;;;;;5030600;28;21068;-87
2021/10/22 00:23:56;;;;;;;0.10;0.10;;;;;;;;;;5034920;28;20055;-88
2021/10/22 00:26:22;;;;;;;0.10;0.10;;;;;;;;;;5022596;28;20394;-88
2021/10/22 00:28:48;;;;;;;16.23;1.13;;;;;;;;;;5038591;28;20037;-86
2021/10/22 00:31:15;;;;;;;0.10;0.10;;;;;;;;;;5034101;28;20041;-88
2021/10/22 00:33:41;;;;;;;0.00;0.00;;;;;;;;;;5031755;28;20453;-88
2021/10/22 00:36:07;;;;;;;0.27;0.27;;;;;;;;;;5030954;28;20032;-87
2021/10/22 00:38:33;;;;;;;2.63;0.98;;;;;;;;;;5036000;28;20029;-88
2021/10/22 00:41:00;;;;;;;0.30;0.30;;;;;;;;;;5034166;28;20067;-87
2021/10/22 00:43:31;;;;;;;0.10;0.10;;;;;;;;;;5013819;28;20284;-87
2021/10/22 00:45:57;;;;;;;0.13;0.13;;;;;;;;;;5034500;28;20122;-86
2021/10/22 00:48:23;;;;;;;0.22;0.22;;;;;;;;;;5039465;28;20025;-86
2021/10/22 00:50:50;;;;;;;0.98;0.60;;;;;;;;;;5039643;28;20119;-87
2021/10/22 00:53:17;;;;;;;0.20;0.20;;;;;;;;;;5038589;28;20432;-87
2021/10/22 00:55:43;;;;;;;0.00;0.00;;;;;;;;;;5033271;28;20021;-86
2021/10/22 00:58:11;;;;;;;0.10;0.10;;;;;;;;;;5039590;28;20779;-87
2021/10/22 01:00:37;;;;;;;0.10;0.10;;;;;;;;;;5035698;28;20064;-85
2021/10/22 01:03:05;;;;;;;0.00;0.00;;;;;;;;;;5031162;28;20053;-87
2021/10/22 01:05:31;;;;;;;0.35;0.35;;;;;;;;;;5033595;28;20041;-87
2021/10/22 01:07:57;;;;;;;0.10;0.10;;;;;;;;;;5018440;28;20024;-85
2021/10/22 01:10:23;;;;;;;0.63;0.63;;;;;;;;;;5033101;28;20037;-86
2021/10/22 01:12:49;;;;;;;0.10;0.10;;;;;;;;;;5037547;28;20112;-86
2021/10/22 01:15:15;;;;;;;0.40;0.30;;;;;;;;;;5035146;28;20790;-86
2021/10/22 01:17:43;;;;;;;0.10;0.10;;;;;;;;;;5033397;28;20327;-86
2021/10/22 01:20:13;;;;;;;0.10;0.10;;;;;;;;;;5031407;28;20082;-85
2021/10/22 01:22:40;;;;;;;0.30;0.30;;;;;;;;;;5035791;28;20032;-85
2021/10/22 01:25:10;;;;;;;0.00;0.00;;;;;;;;;;5032299;28;20043;-86
2021/10/22 01:27:37;;;;;;;0.28;0.28;;;;;;;;;;5034821;28;20041;-86
2021/10/22 01:30:04;;;;;;;0.10;0.10;;;;;;;;;;5038332;28;20040;-86
2021/10/22 01:32:31;;;;;;;3.60;1.70;;;;;;;;;;5016284;28;20052;-85
2021/10/22 01:34:57;;;;;;;0.30;0.30;;;;;;;;;;5030957;28;20034;-85
2021/10/22 01:37:23;;;;;;;0.40;0.40;;;;;;;;;;5033501;28;20029;-85
2021/10/22 01:39:49;;;;;;;0.20;0.20;;;;;;;;;;5039228;28;20021;-86
2021/10/22 01:42:15;;;;;;;0.67;0.67;;;;;;;;;;5028398;28;20030;-86
2021/10/22 01:44:41;;;;;;;0.10;0.10;;;;;;;;;;5035810;28;20030;-87
2021/10/22 01:47:08;;;;;;;0.17;0.17;;;;;;;;;;5032338;28;20041;-86
2021/10/22 01:49:34;;;;;;;0.43;0.43;;;;;;;;;;5030003;28;20033;-86
2021/10/22 01:52:00;;;;;;;0.20;0.20;;;;;;;;;;5031240;28;20792;-86
2021/10/22 01:54:27;;;;;;;0.77;0.77;;;;;;;;;;5041607;28;20033;-86
2021/10/22 01:56:53;;;;;;;;;;;;;;;;;;5030095;28;20036;-86
2021/10/22 01:59:19;;;;;;;0.10;0.10;;;;;;;;;;5034323;28;19908;-86
2021/10/22 02:01:45;;;;;;;4.23;1.13;;;;;;;;;;5035801;28;20041;-85
2021/10/22 02:04:11;;;;;;;0.20;0.20;;;;;;;;;;5030957;28;20307;-85
2021/10/22 02:06:37;;;;;;;0.37;0.37;;;;;;;;;;5030189;28;20120;-86
2021/10/22 02:09:03;;;;;;;0.10;0.10;;;;;;;;;;5037590;28;20264;-85
2021/10/22 02:11:29;;;;;;;0.10;0.10;;;;;;;;;;5034245;28;20037;-85
2021/10/22 02:13:55;;;;;;;0.10;0.10;;;;;;;;;;5030048;28;20030;-85
2021/10/22 02:16:21;;;;;;;0.05;0.05;;;;;;;;;;5029795;28;20051;-86
2021/10/22 02:18:47;;;;;;;0.23;0.23;;;;;;;;;;5032966;28;20025;-86
2021/10/22 02:21:13;;;;;;;0.10;0.10;;;;;;;;;;5029251;28;20813;-85
2021/10/22 02:23:39;;;;;;;0.30;0.30;;;;;;;;;;5031535;28;20025;-86
2021/10/22 02:26:06;;;;;;;0.10;0.10;;;;;;;;;;5032876;28;20037;-86
2021/10/22 02:28:32;;;;;;;0.10;0.10;;;;;;;;;;5031772;28;20079;-86
2021/10/22 02:30:59;;;;;;;0.53;0.53;;;;;;;;;;5035197;28;20052;-86
2021/10/22 02:33:25;;;;;;;0.10;0.10;;;;;;;;;;5032594;28;20268;-87
2021/10/22 02:35:52;;;;;;;5.10;0.28;;;;;;;;;;5034125;28;20041;-86
2021/10/22 02:38:18;;;;;;;0.10;0.10;;;;;;;;;;5035170;28;20037;-86
2021/10/22 02:40:44;;;;;;;0.13;0.13;;;;;;;;;;5032808;28;20041;-85
2021/10/22 02:43:10;;;;;;;0.70;0.70;;;;;;;;;;5036596;28;20025;-86
2021/10/22 02:45:36;;;;;;;0.10;0.10;;;;;;;;;;5034860;28;20353;-86
2021/10/22 02:48:02;;;;;;;0.10;0.10;;;;;;;;;;5033923;28;20272;-84
2021/10/22 02:50:28;;;;;;;0.52;0.52;;;;;;;;;;5032999;28;20048;-85
2021/10/22 02:52:55;;;;;;;1.20;0.70;;;;;;;;;;5036922;28;20136;-85
2021/10/22 02:55:21;;;;;;;0.17;0.17;;;;;;;;;;5035654;28;20341;-86
2021/10/22 02:57:47;;;;;;;0.10;0.10;;;;;;;;;;5036122;28;20497;-86
2021/10/22 03:00:13;;;;;;;0.10;0.10;;;;;;;;;;5036113;28;20025;-86
2021/10/22 03:02:45;;;;;;;0.20;0.20;;;;;;;;;;5036391;28;20095;-85
2021/10/22 03:05:11;;;;;;;0.30;0.30;;;;;;;;;;5034021;28;20505;-86
2021/10/22 03:07:38;;;;;;;0.52;0.52;;;;;;;;;;5032459;28;20059;-85
2021/10/22 03:10:06;;;;;;;0.10;0.10;;;;;;;;;;5034405;28;20043;-85
2021/10/22 03:12:32;;;;;;;0.10;0.10;;;;;;;;;;5031961;28;20041;-85
2021/10/22 03:14:58;;;;;;;0.10;0.10;;;;;;;;;;5033216;28;20055;-86
2021/10/22 03:17:25;;;;;;;0.33;0.33;;;;;;;;;;5034832;28;20029;-86
2021/10/22 03:19:51;;;;;;;0.30;0.30;;;;;;;;;;5030765;28;20040;-87
2021/10/22 03:22:17;;;;;;;0.10;0.10;;;;;;;;;;5033450;28;20197;-87
2021/10/22 03:24:43;;;;;;;9.33;0.50;;;;;;;;;;5033019;28;20039;-86
2021/10/22 03:27:11;;;;;;;3.83;1.13;;;;;;;;;;5032026;28;20033;-85
2021/10/22 03:29:38;;;;;;;0.17;0.17;;;;;;;;;;5032135;28;20029;-86
2021/10/22 03:32:04;;;;;;;1.77;1.45;;;;;;;;;;5034184;28;20044;-85
2021/10/22 03:34:30;;;;;;;1.65;0.57;;;;;;;;;;5031690;28;20056;-86
2021/10/22 03:36:56;;;;;;;0.10;0.10;;;;;;;;;;5033134;28;20576;-87
2021/10/22 03:39:22;;;;;;;0.30;0.30;;;;;;;;;;5031437;28;20842;-85
2021/10/22 03:41:48;;;;;;;0.27;0.27;;;;;;;;;;5035260;28;20029;-86
2021/10/22 03:44:15;;;;;;;2.70;1.55;;;;;;;;;;5031741;28;20035;-86
2021/10/22 03:46:41;;;;;;;0.10;0.10;;;;;;;;;;5033758;28;20100;-85
2021/10/22 03:49:07;;;;;;;1.97;0.90;;;;;;;;;;5032614;28;20044;-86
2021/10/22 03:51:33;;;;;;;0.10;0.10;;;;;;;;;;5033230;28;20079;-85
2021/10/22 03:53:59;;;;;;;0.15;0.15;;;;;;;;;;5042035;28;20032;-86
2021/10/22 03:56:26;;;;;;;0.32;0.32;;;;;;;;;;5033443;28;20072;-86
2021/10/22 03:58:52;;;;;;;0.10;0.10;;;;;;;;;;5033998;28;20036;-85
2021/10/22 04:01:18;;;;;;;15.65;0.47;;;;;;;;;;5031693;28;20049;-86
2021/10/22 04:03:44;;;;;;;0.98;0.98;;;;;;;;;;5037116;28;20518;-85
2021/10/22 04:06:11;;;;;;;0.25;0.25;;;;;;;;;;5040505;28;20061;-86
2021/10/22 04:08:37;;;;;;;0.10;0.10;;;;;;;;;;5019011;28;20409;-85
2021/10/22 04:11:04;;;;;;;0.60;0.43;;;;;;;;;;5036298;28;20603;-86
2021/10/22 04:13:30;;;;;;;0.32;0.32;;;;;;;;;;5014424;28;20036;-87
2021/10/22 04:15:56;;;;;;;0.20;0.20;;;;;;;;;;5034776;28;20029;-86
2021/10/22 04:18:22;;;;;;;0.52;0.52;;;;;;;;;;5036814;28;20060;-87
2021/10/22 04:20:49;;;;;;;0.15;0.15;;;;;;;;;;5030722;28;20776;-86
2021/10/22 04:23:15;;;;;;;;;;;;;;;;;;5035255;28;20033;-86
2021/10/22 04:25:41;;;;;;;0.10;0.10;;;;;;;;;;5031619;28;20400;-85
2021/10/22 04:28:08;;;;;;;0.10;0.10;;;;;;;;;;5033026;28;20048;-85
2021/10/22 04:30:34;;;;;;;0.47;0.47;;;;;;;;;;5032465;28;20661;-88
2021/10/22 04:33:00;;;;;;;0.10;0.10;;;;;;;;;;5034718;28;20104;-86
2021/10/22 04:35:26;;;;;;;0.10;0.10;;;;;;;;;;5013115;28;20036;-86
2021/10/22 04:40:32;;;;;;;0.10;0.10;;;;;;;;;;5037950;28;20291;-87
2021/10/22 04:43:08;;;;;;;0.10;0.10;;;;;;;;;;5028226;28;20150;-86
2021/10/22 04:45:36;;;;;;;0.10;0.10;;;;;;;;;;5029952;28;20681;-86
2021/10/22 04:48:03;;;;;;;0.38;0.20;;;;;;;;;;5041386;28;20472;-87
2021/10/22 04:50:30;;;;;;;0.10;0.10;;;;;;;;;;5035218;28;20121;-86
2021/10/22 04:52:57;;;;;;;0.10;0.10;;;;;;;;;;5042355;28;20067;-86
2021/10/22 04:55:24;;;;;;;0.52;0.47;;;;;;;;;;5042061;28;20502;-86
2021/10/22 04:57:51;;;;;;;0.17;0.17;;;;;;;;;;5034892;28;20064;-86
2021/10/22 05:00:17;;;;;;;0.10;0.10;;;;;;;;;;5032603;28;20080;-87
2021/10/22 05:02:44;;;;;;;0.00;0.00;;;;;;;;;;5039943;28;20033;-87
2021/10/22 05:05:10;;;;;;;2.20;0.30;;;;;;;;;;5036739;28;20051;-87
2021/10/22 05:07:36;;;;;;;0.20;0.20;;;;;;;;;;5018052;28;20478;-86
2021/10/22 05:10:02;;;;;;;0.25;0.25;;;;;;;;;;5031031;28;20048;-85
2021/10/22 05:12:28;;;;;;;0.20;0.20;;;;;;;;;;5038130;28;20087;-86
2021/10/22 05:14:54;;;;;;;0.53;0.53;;;;;;;;;;5035258;28;20116;-84
2021/10/22 05:17:20;;;;;;;0.10;0.10;;;;;;;;;;5029366;28;20124;-84
2021/10/22 05:19:46;;;;;;;1.23;0.83;;;;;;;;;;5030756;28;20029;-85
2021/10/22 05:22:13;;;;;;;0.00;0.00;;;;;;;;;;5032228;28;20329;-84
2021/10/22 05:24:39;;;;;;;0.03;0.03;;;;;;;;;;5032707;28;20069;-85
2021/10/22 05:27:05;;;;;;;0.20;0.20;;;;;;;;;;5013607;28;20359;-86
2021/10/22 05:29:31;;;;;;;0.57;0.57;;;;;;;;;;5031695;28;20033;-87
2021/10/22 05:31:57;;;;;;;0.10;0.10;;;;;;;;;;5034451;28;20029;-86
2021/10/22 05:34:23;;;;;;;0.10;0.10;;;;;;;;;;5034574;28;20033;-87
2021/10/22 05:36:49;;;;;;;0.15;0.15;;;;;;;;;;5029225;28;20478;-85
2021/10/22 05:39:16;;;;;;;0.20;0.20;;;;;;;;;;5034575;28;20025;-87
2021/10/22 05:41:42;;;;;;;;;;;;;;;;;;5034510;28;20504;-85
2021/10/22 05:44:08;;;;;;;0.10;0.10;;;;;;;;;;5037776;28;19909;-87
2021/10/22 05:46:34;;;;;;;0.20;0.20;;;;;;;;;;5033519;28;20052;-88
2021/10/22 05:49:00;;;;;;;0.37;0.37;;;;;;;;;;5041986;28;20029;-87
2021/10/22 05:51:26;;;;;;;0.53;0.53;;;;;;;;;;5041827;28;20085;-86
2021/10/22 05:53:53;;;;;;;0.67;0.67;;;;;;;;;;5042133;28;20029;-85
2021/10/22 05:56:19;;;;;;;0.10;0.10;;;;;;;;;;5041370;28;20117;-86
2021/10/22 05:58:45;;;;;;;0.10;0.10;;;;;;;;;;5041334;28;20029;-86
2021/10/22 06:01:12;;;;;;;0.00;0.00;;;;;;;;;;5040966;28;20379;-85
2021/10/22 06:03:38;;;;;;;0.00;0.00;;;;;;;;;;5044868;28;20033;-87
2021/10/22 06:06:04;;;;;;;0.10;0.10;;;;;;;;;;5047788;28;20021;-88
2021/10/22 06:08:31;;;;;;;0.60;0.60;;;;;;;;;;5045163;28;20790;-87
2021/10/22 06:10:57;;;;;;;0.43;0.43;;;;;;;;;;5044693;28;20045;-85
2021/10/22 06:13:23;;;;;;;0.10;0.10;;;;;;;;;;5045495;28;20060;-87
2021/10/22 06:15:49;;;;;;;0.30;0.30;;;;;;;;;;5026454;28;20135;-86
2021/10/22 06:18:18;;;;;;;0.10;0.10;;;;;;;;;;5046438;28;20091;-85
2021/10/22 06:20:49;;;;;;;0.40;0.40;;;;;;;;;;5044649;28;20818;-85
2021/10/22 06:25:59;;;;;;;0.20;0.20;;;;;;;;;;5045085;28;20052;-86
2021/10/22 06:28:25;;;;;;;0.10;0.10;;;;;;;;;;5043488;28;20020;-87
2021/10/22 06:30:52;;;;;;;0.10;0.10;;;;;;;;;;5044599;28;20037;-87
2021/10/22 06:33:18;;;;;;;0.10;0.10;;;;;;;;;;5046178;28;20040;-85
2021/10/22 06:35:45;;;;;;;0.10;0.10;;;;;;;;;;5045863;28;20029;-86
2021/10/22 06:38:11;;;;;;;1.02;0.20;;;;;;;;;;5044770;28;20039;-87
2021/10/22 06:40:37;;;;;;;0.10;0.10;;;;;;;;;;5027647;28;20025;-84
2021/10/22 06:43:03;;;;;;;0.30;0.30;;;;;;;;;;5044699;28;20032;-85
2021/10/22 06:45:29;;;;;;;0.10;0.10;;;;;;;;;;5053229;28;20024;-85
2021/10/22 06:47:55;;;;;;;0.10;0.10;;;;;;;;;;5045088;28;20029;-87
2021/10/22 06:50:21;;;;;;;0.37;0.37;;;;;;;;;;5044940;28;20088;-87
2021/10/22 06:52:49;;;;;;;0.10;0.10;;;;;;;;;;5045224;28;20442;-88
2021/10/22 06:55:15;;;;;;;0.20;0.20;;;;;;;;;;5041228;28;20041;-91
2021/10/22 06:57:41;;;;;;;0.10;0.10;;;;;;;;;;5030727;28;20071;-90
2021/10/22 07:00:10;;;;;;;0.25;0.17;;;;;;;;;;5044707;28;20079;-90
2021/10/22 07:02:46;;;;;;;0.30;0.30;;;;;;;;;;5031280;28;20045;-90
2021/10/22 07:05:33;;;;;;;5.82;2.08;;;;;;;;;;5047805;28;20029;-90
2021/10/22 07:08:00;;;;;;;0.38;0.38;;;;;;;;;;5047091;28;20037;-91
2021/10/22 07:10:28;;;;;;;0.10;0.10;;;;;;;;;;5050076;28;20088;-90
2021/10/22 07:12:54;;;;;;;0.10;0.10;;;;;;;;;;5044251;28;20529;-91
2021/10/22 07:15:21;;;;;;;0.40;0.40;;;;;;;;;;5044444;28;20041;-90
2021/10/22 07:17:47;;;;;;;;;;;;;;;;;;5032113;28;20452;-89
2021/10/22 07:20:13;;;;;;;0.10;0.10;;;;;;;;;;5046909;28;19908;-90
2021/10/22 07:22:48;;;;;;;0.10;0.10;;;;;;;;;;5037612;28;20056;-91
2021/10/22 07:25:18;;;;;;;0.10;0.10;;;;;;;;;;5036879;28;20441;-90
2021/10/22 07:27:44;;;;;;;0.15;0.15;;;;;;;;;;5042872;28;20026;-88
2021/10/22 07:30:10;;;;;;;0.10;0.10;;;;;;;;;;5044318;28;20978;-86
2021/10/22 07:32:37;;;;;;;0.35;0.35;;;;;;;;;;5043618;28;20021;-87
2021/10/22 07:35:03;;;;;;;0.20;0.20;;;;;;;;;;5042242;28;20127;-87
2021/10/22 07:37:29;;;;;;;0.20;0.20;;;;;;;;;;5043468;28;20020;-86
2021/10/22 07:39:55;;;;;;;0.10;0.10;;;;;;;;;;5043624;28;20037;-87
2021/10/22 07:42:24;;;;;;;0.20;0.20;;;;;;;;;;5044916;28;20556;-87
2021/10/22 07:44:54;;;;;;;0.08;0.08;;;;;;;;;;5045364;28;20268;-87
2021/10/22 07:47:21;;;;;;;0.15;0.15;;;;;;;;;;5044063;28;20132;-87
2021/10/22 07:49:49;;;;;;;;;;;;;;;;;;5043288;28;20039;-86
2021/10/22 07:52:17;;;;;;;0.10;0.10;;;;;;;;;;5043247;28;20024;-86
2021/10/22 07:54:43;;;;;;;0.80;0.30;;;;;;;;;;5027540;28;20080;-87
2021/10/22 07:57:09;;;;;;;0.10;0.10;;;;;;;;;;5041428;28;20020;-86
2021/10/22 07:59:36;;;;;;;0.30;0.30;;;;;;;;;;5026637;28;20068;-87
2021/10/22 08:02:02;;;;;;;0.17;0.17;;;;;;;;;;5043605;28;20126;-87
2021/10/22 08:04:28;;;;;;;0.10;0.10;;;;;;;;;;5043297;28;20021;-86
2021/10/22 08:06:54;;;;;;;0.88;0.80;;;;;;;;;;5040903;28;20026;-87
2021/10/22 08:09:20;;;;;;;0.22;0.20;;;;;;;;;;5044367;28;20140;-87
2021/10/22 08:11:48;;;;;;;0.10;0.10;;;;;;;;;;5044741;28;20144;-87
2021/10/22 08:14:14;;;;;;;0.10;0.10;;;;;;;;;;5043008;28;20040;-86
2021/10/22 08:16:40;;;;;;;0.10;0.10;;;;;;;;;;5043408;28;20489;-87
2021/10/22 08:19:06;;;;;;;3.40;0.63;;;;;;;;;;5043395;28;20272;-87
2021/10/22 08:24:05;;;;;;;0.00;0.00;;;;;;;;;;5045791;28;20064;-87
2021/10/22 08:26:31;;;;;;;0.10;0.10;;;;;;;;;;5042163;28;20025;-87
2021/10/22 08:28:57;;;;;;;0.00;0.00;;;;;;;;;;5040633;28;20037;-87
2021/10/22 08:31:23;;;;;;;0.10;0.10;;;;;;;;;;5042687;28;20303;-87
2021/10/22 08:33:49;;;;;;;0.10;0.10;;;;;;;;;;5042937;28;20275;-87
2021/10/22 08:36:15;;;;;;;0.30;0.30;;;;;;;;;;5040362;28;20341;-88
2021/10/22 08:38:41;;;;;;;0.63;0.20;;;;;;;;;;5042232;28;20028;-87
2021/10/22 08:41:09;;;;;;;0.20;0.20;;;;;;;;;;5042622;28;20031;-87
2021/10/22 08:43:35;;;;;;;0.00;0.00;;;;;;;;;;5041002;28;20477;-88
2021/10/22 08:46:02;;;;;;;;;;;;;;;;;;5025625;28;20708;-87
2021/10/22 08:48:29;;;;;;;0.10;0.10;;;;;;;;;;5042359;28;20277;-87
2021/10/22 08:50:55;;;;;;;;;;;;;;;;;;5042653;28;20044;-87
2021/10/22 08:53:22;;;;;;;0.98;0.80;;;;;;;;;;5042556;28;19920;-87
2021/10/22 08:55:48;;;;;;;0.10;0.10;;;;;;;;;;5042822;28;20216;-87
2021/10/22 08:58:18;;;;;;;0.10;0.10;;;;;;;;;;5041699;28;20021;-87
2021/10/22 09:00:45;;;;;;;0.52;0.52;;;;;;;;;;5025987;28;20528;-88
2021/10/22 09:03:11;;;;;;;;;;;;;;;;;;5045254;28;20161;-87
2021/10/22 09:05:38;;;;;;;0.20;0.20;;;;;;;;;;5042237;28;20497;-87
2021/10/22 09:08:08;;;;;;;0.10;0.10;;;;;;;;;;5042572;28;20040;-88
2021/10/22 09:10:36;;;;;;;0.77;0.45;;;;;;;;;;5041942;28;20094;-87
2021/10/22 09:13:09;;;;;;;0.30;0.30;;;;;;;;;;5042526;28;20056;-88
2021/10/22 09:15:42;;;;;;;0.17;0.17;;;;;;;;;;5041803;28;20988;-87
2021/10/22 09:18:16;;;;;;;0.28;0.28;;;;;;;;;;5044347;28;20560;-87
2021/10/22 09:20:51;;;;;;;0.08;0.08;;;;;;;;;;5041680;28;20405;-87
2021/10/22 09:23:27;;;;;;;0.00;0.00;;;;;;;;;;5041857;28;20094;-88
2021/10/22 09:25:54;;;;;;;0.52;0.52;;;;;;;;;;5041729;28;20132;-87
2021/10/22 09:28:26;;;;;;;0.57;0.40;;;;;;;;;;5041845;28;20508;-87
2021/10/22 09:30:52;;;;;;;1.05;0.43;;;;;;;;;;5041996;28;20028;-87
2021/10/22 09:33:21;;;;;;;0.10;0.10;;;;;;;;;;5042926;28;20025;-88
2021/10/22 09:35:50;;;;;;;0.20;0.20;;;;;;;;;;5042977;28;20090;-87
2021/10/22 09:38:19;;;;;;;1.15;1.05;;;;;;;;;;5044978;28;20036;-87
2021/10/22 09:40:50;;;;;;;0.60;0.60;;;;;;;;;;5045590;28;20048;-88
2021/10/22 09:43:18;;;;;;;0.20;0.20;;;;;;;;;;5046136;28;20036;-87
2021/10/22 09:45:47;;;;;;;0.10;0.10;;;;;;;;;;5047584;28;20035;-88
2021/10/22 09:48:22;;;;;;;0.17;0.17;;;;;;;;;;5047905;28;20035;-87
2021/10/22 09:50:48;;;;;;;0.03;0.03;;;;;;;;;;5047241;28;20405;-88
2021/10/22 09:53:45;;;;;;;0.20;0.20;;;;;;;;;;5026071;28;20034;-88
2021/10/22 09:56:18;;;;;;;0.15;0.15;;;;;;;;;;5016999;28;20116;-87
2021/10/22 09:58:52;;;;;;;0.00;0.00;;;;;;;;;;5025768;28;20037;-88
2021/10/22 10:01:18;;;;;;;0.20;0.20;;;;;;;;;;5026195;28;20287;-88
2021/10/22 10:03:45;;;;;;;0.00;0.00;;;;;;;;;;5025754;28;20509;-88
2021/10/22 10:06:11;;;;;;;0.43;0.38;;;;;;;;;;5028360;28;20041;-88
2021/10/22 10:08:41;;;;;;;0.00;0.00;;;;;;;;;;5026157;28;20448;-87
2021/10/22 10:11:08;;;;;;;1.85;1.35;;;;;;;;;;5025828;28;20057;-87
2021/10/22 10:13:35;;;;;;;0.00;0.00;;;;;;;;;;5026097;28;20026;-87
2021/10/22 10:16:08;;;;;;;0.35;0.35;;;;;;;;;;5024012;28;20041;-87
2021/10/22 10:18:46;;;;;;;0.10;0.10;;;;;;;;;;5025808;28;20880;-87
2021/10/22 10:21:14;;;;;;;0.00;0.00;;;;;;;;;;5023713;28;20042;-88
2021/10/22 10:23:42;;;;;;;0.65;0.65;;;;;;;;;;5025570;28;20113;-88
2021/10/22 10:26:22;;;;;;;0.30;0.30;;;;;;;;;;5027286;28;20083;-90
2021/10/22 10:28:50;;;;;;;1.13;0.95;;;;;;;;;;5026209;28;20025;-89
2021/10/22 10:31:27;;;;;;;0.20;0.20;;;;;;;;;;5028235;28;20048;-91
2021/10/22 10:33:55;;;;;;;0.20;0.20;;;;;;;;;;5028041;28;20026;-88
2021/10/22 10:36:40;;;;;;;0.20;0.20;;;;;;;;;;5025473;28;20691;-89
2021/10/22 10:39:06;;;;;;;0.30;0.28;;;;;;;;;;5027244;28;20037;-88
2021/10/22 10:41:35;;;;;;;0.00;0.00;;;;;;;;;;5024913;28;20052;-89
2021/10/22 10:44:24;;;;;;;0.20;0.20;;;;;;;;;;5026923;28;20785;-88
2021/10/22 10:46:50;;;;;;;0.00;0.00;;;;;;;;;;5013955;28;20034;-88
2021/10/22 10:49:35;;;;;;;2.53;1.20;;;;;;;;;;5023238;28;20041;-88
2021/10/22 10:52:01;;;;;;;0.15;0.15;;;;;;;;;;5021525;28;20300;-89
2021/10/22 10:54:27;;;;;;;0.10;0.10;;;;;;;;;;5028547;28;20033;-89
2021/10/22 10:56:53;;;;;;;0.08;0.08;;;;;;;;;;5040500;28;20083;-89
2021/10/22 10:59:48;;;;;;;0.03;0.03;;;;;;;;;;5045011;28;20032;-90
2021/10/22 11:02:14;;;;;;;0.20;0.20;;;;;;;;;;5033962;28;20044;-88
2021/10/22 11:04:47;;;;;;;0.00;0.00;;;;;;;;;;5036945;28;20031;-89
2021/10/22 11:07:32;;;;;;;0.80;0.52;;;;;;;;;;5030069;28;20040;-89
2021/10/22 11:09:59;;;;;;;0.43;0.43;;;;;;;;;;5040664;28;20099;-89
2021/10/22 11:12:26;;;;;;;0.10;0.10;;;;;;;;;;5029176;28;20024;-90
2021/10/22 11:14:57;;;;;;;0.00;0.00;;;;;;;;;;5022450;28;20040;-89
2021/10/22 11:17:28;;;;;;;0.00;0.00;;;;;;;;;;5028276;28;20353;-90
2021/10/22 11:19:57;;;;;;;0.00;0.00;;;;;;;;;;5044903;28;20021;-89
2021/10/22 11:22:26;;;;;;;0.52;0.52;;;;;;;;;;5042537;28;20123;-89
2021/10/22 11:24:52;;;;;;;0.00;0.00;;;;;;;;;;5040759;28;20033;-89
2021/10/22 11:27:19;;;;;;;0.30;0.30;;;;;;;;;;5045807;28;20114;-89
2021/10/22 11:29:50;;;;;;;0.10;0.10;;;;;;;;;;5046855;28;20079;-91
2021/10/22 11:32:17;;;;;;;0.00;0.00;;;;;;;;;;5040708;28;20107;-92
2021/10/22 11:35:04;;;;;;;0.00;0.00;;;;;;;;;;5039359;28;20387;-89
2021/10/22 11:37:32;;;;;;;0.00;0.00;;;;;;;;;;5045283;28;20037;-91
2021/10/22 11:40:01;;;;;;;0.10;0.10;;;;;;;;;;5023756;28;20024;-91
2021/10/22 11:42:30;;;;;;;0.10;0.10;;;;;;;;;;5043638;28;20044;-88
2021/10/22 11:45:02;;;;;;;0.70;0.70;;;;;;;;;;5041093;28;20075;-90
2021/10/22 11:47:34;;;;;;;0.10;0.10;;;;;;;;;;5040130;28;20127;-90
2021/10/22 11:50:21;;;;;;;0.00;0.00;;;;;;;;;;5033951;28;20030;-90
2021/10/22 11:52:48;;;;;;;0.08;0.08;;;;;;;;;;5036915;28;20136;-90
2021/10/22 11:55:24;;;;;;;0.10;0.10;;;;;;;;;;5046147;28;20025;-88
2021/10/22 11:57:51;;;;;;;0.20;0.20;;;;;;;;;;5039245;28;20037;-90
2021/10/22 12:00:17;;;;;;;0.00;0.00;;;;;;;;;;5046590;28;20041;-92
2021/10/22 12:02:44;;;;;;;0.75;0.63;;;;;;;;;;5049328;28;20017;-92
2021/10/22 12:05:12;;;;;;;0.52;0.52;;;;;;;;;;5051039;28;20417;-90
2021/10/22 12:07:39;;;;;;;0.10;0.10;;;;;;;;;;5027811;28;20021;-88
2021/10/22 12:10:09;;;;;;;0.50;0.50;;;;;;;;;;5043789;28;20029;-89
2021/10/22 12:12:37;;;;;;;0.05;0.05;;;;;;;;;;5043804;28;20036;-88
2021/10/22 12:15:03;;;;;;;0.38;0.30;;;;;;;;;;5045810;28;20025;-88
2021/10/22 12:17:30;;;;;;;0.10;0.10;;;;;;;;;;5043543;28;20032;-88
2021/10/22 12:19:57;;;;;;;0.10;0.10;;;;;;;;;;5043096;28;20029;-88
2021/10/22 12:22:27;;;;;;;0.00;0.00;;;;;;;;;;5042529;28;20056;-89
2021/10/22 12:24:55;;;;;;;0.10;0.10;;;;;;;;;;5042183;28;20067;-89
2021/10/22 12:27:24;;;;;;;0.20;0.20;;;;;;;;;;5044542;28;20082;-88
2021/10/22 12:29:54;;;;;;;0.00;0.00;;;;;;;;;;5044827;28;20021;-88
2021/10/22 12:32:48;;;;;;;0.00;0.00;;;;;;;;;;5041704;28;20132;-88
2021/10/22 12:35:18;;;;;;;0.03;0.03;;;;;;;;;;5040141;28;20368;-89
2021/10/22 12:37:44;;;;;;;0.30;0.30;;;;;;;;;;5034054;28;20131;-89
2021/10/22 12:40:19;;;;;;;0.05;0.05;;;;;;;;;;5029261;28;20134;-89
2021/10/22 12:42:46;;;;;;;0.00;0.00;;;;;;;;;;5026041;28;20765;-88
2021/10/22 12:45:24;;;;;;;0.10;0.10;;;;;;;;;;5040970;28;20028;-88
2021/10/22 12:47:50;;;;;;;0.17;0.17;;;;;;;;;;5044375;28;20047;-89
2021/10/22 12:50:18;;;;;;;0.00;0.00;;;;;;;;;;5042900;28;20049;-88
2021/10/22 12:52:58;;;;;;;1.48;0.57;;;;;;;;;;5043745;28;20123;-88
2021/10/22 12:55:24;;;;;;;0.00;0.00;;;;;;;;;;5041842;28;20032;-88
2021/10/22 12:57:51;;;;;;;0.00;0.00;;;;;;;;;;5042867;28;20033;-88
2021/10/22 13:00:22;;;;;;;0.10;0.10;;;;;;;;;;5044418;28;20121;-90
2021/10/22 13:02:49;;;;;;;0.57;0.22;;;;;;;;;;5043956;28;20104;-88
2021/10/22 13:05:18;;;;;;;0.00;0.00;;;;;;;;;;5041787;28;20045;-88
2021/10/22 13:08:36;;;;;;;0.10;0.10;;;;;;;;;;5042212;28;20028;-89
2021/10/22 13:12:09;;;;;;;0.10;0.10;;;;;;;;;;5034545;28;20064;-89
2021/10/22 13:14:28;;;;;;;0.10;0.10;;;;;;;;;;5034185;28;20044;-90
2021/10/22 13:22:23;;;;;;;0.10;0.10;;;;;;;;;;5044183;28;20153;-88
2021/10/22 13:24:53;;;;;;;0.13;0.13;;;;;;;;;;5041157;28;20025;-89
2021/10/22 13:27:20;;;;;;;0.00;0.00;;;;;;;;;;5026150;28;20086;-88
2021/10/22 13:29:49;;;;;;;0.00;0.00;;;;;;;;;;5043641;28;20033;-89
2021/10/22 13:32:15;;;;;;;0.00;0.00;;;;;;;;;;5040755;28;20166;-88
2021/10/22 13:34:41;;;;;;;0.00;0.00;;;;;;;;;;5041323;28;20052;-88
2021/10/22 13:37:08;;;;;;;0.03;0.03;;;;;;;;;;5041937;28;20834;-89
2021/10/22 13:39:34;;;;;;;0.30;0.20;;;;;;;;;;5043749;28;20063;-89
2021/10/22 13:42:02;;;;;;;0.00;0.00;;;;;;;;;;5045066;28;20103;-89
2021/10/22 13:44:28;;;;;;;0.10;0.10;;;;;;;;;;5041558;28;20040;-89
2021/10/22 13:46:54;;;;;;;0.30;0.30;;;;;;;;;;5040512;28;20020;-89
2021/10/22 13:49:20;;;;;;;0.10;0.10;;;;;;;;;;5035686;28;20040;-88
2021/10/22 13:51:46;;;;;;;0.10;0.10;;;;;;;;;;5043122;28;20291;-88
2021/10/22 13:54:12;;;;;;;0.00;0.00;;;;;;;;;;5036907;28;20268;-88
2021/10/22 13:56:39;;;;;;;0.13;0.13;;;;;;;;;;5041073;28;20120;-88
2021/10/22 13:59:05;;;;;;;;;;;;;;;;;;5042284;28;20275;-89
2021/10/22 14:01:31;;;;;;;0.00;0.00;;;;;;;;;;5041568;28;19919;-89
2021/10/22 14:03:57;;;;;;;0.00;0.00;;;;;;;;;;5018875;28;20040;-88
2021/10/22 14:06:23;;;;;;;0.00;0.00;;;;;;;;;;5043692;28;20040;-89
2021/10/22 14:08:51;;;;;;;0.00;0.00;;;;;;;;;;5041370;28;20283;-88
2021/10/22 14:11:19;;;;;;;0.10;0.10;;;;;;;;;;5041579;28;20053;-88
2021/10/22 14:14:37;;;;;;;0.00;0.00;;;;;;;;;;5040386;28;20078;-89
2021/10/22 14:16:41;;;;;;;;;;;;;;;;;;5028157;28;20036;-89
2021/10/22 14:19:31;;;;;;;0.03;0.03;;;;;;;;;;5031664;28;20651;-88
2021/10/22 14:29:59;;;;;;;0.00;0.00;;;;;;;;;;5029706;28;20122;-89
2021/10/22 14:32:26;;;;;;;0.00;0.00;;;;;;;;;;5032833;28;20171;-89
2021/10/22 14:34:58;;;;;;;0.35;0.20;;;;;;;;;;5035032;28;20305;-89
2021/10/22 14:37:24;;;;;;;0.15;0.15;;;;;;;;;;5032999;28;20030;-88
2021/10/22 14:39:50;;;;;;;15.23;1.40;;;;;;;;;;5039549;28;20059;-89
2021/10/22 14:42:16;;;;;;;0.07;0.07;;;;;;;;;;5028899;28;20037;-89
2021/10/22 14:44:43;;;;;;;0.00;0.00;;;;;;;;;;5035032;28;20481;-88
2021/10/22 14:47:21;;;;;;;1.23;0.85;;;;;;;;;;5030093;28;20040;-88
2021/10/22 14:49:51;;;;;;;0.20;0.20;;;;;;;;;;5033175;28;20068;-88
2021/10/22 14:54:51;;;;;;;0.10;0.10;;;;;;;;;;5030716;28;20480;-89
2021/10/22 14:57:18;;;;;;;0.00;0.00;;;;;;;;;;5032471;28;20025;-88
2021/10/22 14:59:44;;;;;;;0.17;0.13;;;;;;;;;;5031726;28;20022;-87
2021/10/22 15:02:13;;;;;;;0.00;0.00;;;;;;;;;;5031575;28;20124;-88
2021/10/22 15:04:40;;;;;;;0.45;0.20;;;;;;;;;;5034057;28;20033;-88
2021/10/22 15:07:06;;;;;;;0.10;0.10;;;;;;;;;;5027272;28;20037;-89
2021/10/22 15:09:32;;;;;;;0.10;0.10;;;;;;;;;;5028369;28;20071;-89
2021/10/22 15:11:59;;;;;;;0.15;0.15;;;;;;;;;;5034791;28;20647;-89
2021/10/22 15:14:25;;;;;;;0.10;0.10;;;;;;;;;;5031360;28;20026;-90
2021/10/22 15:16:51;;;;;;;0.32;0.32;;;;;;;;;;5031376;28;20037;-88